sensor_id;sensor_type;location;lat;lon;timestamp;temperature;humidity
22288;DHT22;11312;51.464;6.968;2023-07-31T00:00:11;16.30;99.90
22288;DHT22;11312;51.464;6.968;2023-07-31T00:02:37;16.40;99.90
22288;DHT22;11312;51.464;6.968;2023-07-31T00:05:03;16.40;99.90
22288;DHT22;11312;51.464;6.968;2023-07-31T00:07:29;16.40;99.90
22288;DHT22;11312;51.464;6.968;2023-07-31T00:09:55;16.50;99.90
22288;DHT22;11312;51.464;6.968;2023-07-31T00:12:22;16.40;99.90
22288;DHT22;11312;51.464;6.968;2023-07-31T00:14:48;16.30;99.90
22288;DHT22;11312;51.464;6.968;2023-07-31T00:17:14;16.40;99.90
22288;DHT22;11312;51.464;6.968;2023-07-31T00:19:39;16.40;99.90
22288;DHT22;11312;51.464;6.968;2023-07-31T00:22:05;16.40;99.90
22288;DHT22;11312;51.464;6.968;2023-07-31T00:24:31;16.30;99.90
22288;DHT22;11312;51.464;6.968;2023-07-31T00:26:56;16.40;99.90
22288;DHT22;11312;51.464;6.968;2023-07-31T00:29:22;16.40;99.90
22288;DHT22;11312;51.464;6.968;2023-07-31T00:31:48;16.30;99.90
22288;DHT22;11312;51.464;6.968;2023-07-31T00:34:13;16.30;99.90
22288;DHT22;11312;51.464;6.968;2023-07-31T00:36:39;16.20;99.90
22288;DHT22;11312;51.464;6.968;2023-07-31T00:39:04;16.30;99.90
22288;DHT22;11312;51.464;6.968;2023-07-31T00:41:30;16.30;99.90
22288;DHT22;11312;51.464;6.968;2023-07-31T00:43:56;16.30;99.90
22288;DHT22;11312;51.464;6.968;2023-07-31T00:46:21;16.30;99.90
22288;DHT22;11312;51.464;6.968;2023-07-31T00:48:47;16.30;99.90
22288;DHT22;11312;51.464;6.968;2023-07-31T00:51:14;16.40;99.90
22288;DHT22;11312;51.464;6.968;2023-07-31T00:53:40;16.40;99.90
22288;DHT22;11312;51.464;6.968;2023-07-31T00:56:06;16.30;99.90
22288;DHT22;11312;51.464;6.968;2023-07-31T00:58:31;16.40;99.90
22288;DHT22;11312;51.464;6.968;2023-07-31T01:00:57;16.30;99.90
22288;DHT22;11312;51.464;6.968;2023-07-31T01:03:23;16.30;99.90
22288;DHT22;11312;51.464;6.968;2023-07-31T01:08:48;16.30;99.90
22288;DHT22;11312;51.464;6.968;2023-07-31T01:11:31;16.40;99.90
22288;DHT22;11312;51.464;6.968;2023-07-31T01:13:58;16.30;99.90
22288;DHT22;11312;51.464;6.968;2023-07-31T01:16:25;16.40;99.90
22288;DHT22;11312;51.464;6.968;2023-07-31T01:18:52;16.40;99.90
22288;DHT22;11312;51.464;6.968;2023-07-31T01:24:28;16.30;99.90
22288;DHT22;11312;51.464;6.968;2023-07-31T01:27:06;16.30;99.90
22288;DHT22;11312;51.464;6.968;2023-07-31T01:29:46;16.30;99.90
22288;DHT22;11312;51.464;6.968;2023-07-31T01:32:13;16.30;99.90
22288;DHT22;11312;51.464;6.968;2023-07-31T01:34:41;16.30;99.90
22288;DHT22;11312;51.464;6.968;2023-07-31T01:37:07;16.40;99.90
22288;DHT22;11312;51.464;6.968;2023-07-31T01:39:32;16.40;99.90
22288;DHT22;11312;51.464;6.968;2023-07-31T01:41:58;16.30;99.90
22288;DHT22;11312;51.464;6.968;2023-07-31T01:44:23;16.30;99.90
22288;DHT22;11312;51.464;6.968;2023-07-31T01:46:49;16.30;99.90
22288;DHT22;11312;51.464;6.968;2023-07-31T01:49:15;16.30;99.90
22288;DHT22;11312;51.464;6.968;2023-07-31T01:51:40;16.30;99.90
22288;DHT22;11312;51.464;6.968;2023-07-31T01:54:06;16.30;99.90
22288;DHT22;11312;51.464;6.968;2023-07-31T01:56:31;16.40;99.90
22288;DHT22;11312;51.464;6.968;2023-07-31T01:58:57;16.30;99.90
22288;DHT22;11312;51.464;6.968;2023-07-31T02:01:23;16.30;99.90
22288;DHT22;11312;51.464;6.968;2023-07-31T02:03:48;16.30;99.90
22288;DHT22;11312;51.464;6.968;2023-07-31T02:06:14;16.20;99.90
22288;DHT22;11312;51.464;6.968;2023-07-31T02:08:40;16.20;99.90
22288;DHT22;11312;51.464;6.968;2023-07-31T02:11:05;16.20;99.90
22288;DHT22;11312;51.464;6.968;2023-07-31T02:13:31;16.20;99.90
22288;DHT22;11312;51.464;6.968;2023-07-31T02:15:57;16.20;99.90
22288;DHT22;11312;51.464;6.968;2023-07-31T02:18:23;16.20;99.90
22288;DHT22;11312;51.464;6.968;2023-07-31T02:20:50;16.20;99.90
22288;DHT22;11312;51.464;6.968;2023-07-31T02:23:16;16.30;99.90
22288;DHT22;11312;51.464;6.968;2023-07-31T02:25:42;16.20;99.90
22288;DHT22;11312;51.464;6.968;2023-07-31T02:28:08;16.30;99.90
22288;DHT22;11312;51.464;6.968;2023-07-31T02:30:34;16.20;99.90
22288;DHT22;11312;51.464;6.968;2023-07-31T02:32:59;16.30;99.90
22288;DHT22;11312;51.464;6.968;2023-07-31T02:35:25;16.30;99.90
22288;DHT22;11312;51.464;6.968;2023-07-31T02:37:50;16.20;99.90
22288;DHT22;11312;51.464;6.968;2023-07-31T02:40:16;16.20;99.90
22288;DHT22;11312;51.464;6.968;2023-07-31T02:42:41;16.20;99.90
22288;DHT22;11312;51.464;6.968;2023-07-31T02:45:07;16.20;99.90
22288;DHT22;11312;51.464;6.968;2023-07-31T02:47:33;16.20;99.90
22288;DHT22;11312;51.464;6.968;2023-07-31T02:49:59;16.20;99.90
22288;DHT22;11312;51.464;6.968;2023-07-31T02:52:25;16.30;99.90
22288;DHT22;11312;51.464;6.968;2023-07-31T02:54:51;16.10;99.90
22288;DHT22;11312;51.464;6.968;2023-07-31T02:57:17;16.20;99.90
22288;DHT22;11312;51.464;6.968;2023-07-31T02:59:42;16.20;99.90
22288;DHT22;11312;51.464;6.968;2023-07-31T03:02:08;16.20;99.90
22288;DHT22;11312;51.464;6.968;2023-07-31T03:04:34;16.10;99.90
22288;DHT22;11312;51.464;6.968;2023-07-31T03:06:59;16.30;99.90
22288;DHT22;11312;51.464;6.968;2023-07-31T03:09:25;16.20;99.90
22288;DHT22;11312;51.464;6.968;2023-07-31T03:11:50;16.20;99.90
22288;DHT22;11312;51.464;6.968;2023-07-31T03:14:16;16.10;99.90
22288;DHT22;11312;51.464;6.968;2023-07-31T03:16:41;16.10;99.90
22288;DHT22;11312;51.464;6.968;2023-07-31T03:19:07;16.20;99.90
22288;DHT22;11312;51.464;6.968;2023-07-31T03:21:32;16.20;99.90
22288;DHT22;11312;51.464;6.968;2023-07-31T03:23:58;16.30;99.90
22288;DHT22;11312;51.464;6.968;2023-07-31T03:26:24;16.30;99.90
22288;DHT22;11312;51.464;6.968;2023-07-31T03:28:49;16.20;99.90
22288;DHT22;11312;51.464;6.968;2023-07-31T03:31:15;16.30;99.90
22288;DHT22;11312;51.464;6.968;2023-07-31T03:33:40;16.30;99.90
22288;DHT22;11312;51.464;6.968;2023-07-31T03:36:06;16.30;99.90
22288;DHT22;11312;51.464;6.968;2023-07-31T03:38:34;16.40;99.90
22288;DHT22;11312;51.464;6.968;2023-07-31T03:40:59;16.40;99.90
22288;DHT22;11312;51.464;6.968;2023-07-31T03:43:25;16.40;99.90
22288;DHT22;11312;51.464;6.968;2023-07-31T03:45:51;16.40;99.90
22288;DHT22;11312;51.464;6.968;2023-07-31T03:48:16;16.50;99.90
22288;DHT22;11312;51.464;6.968;2023-07-31T03:50:42;16.30;99.90
22288;DHT22;11312;51.464;6.968;2023-07-31T03:53:08;16.40;99.90
22288;DHT22;11312;51.464;6.968;2023-07-31T03:55:33;16.30;99.90
22288;DHT22;11312;51.464;6.968;2023-07-31T03:57:59;16.40;99.90
22288;DHT22;11312;51.464;6.968;2023-07-31T04:00:26;16.40;99.90
22288;DHT22;11312;51.464;6.968;2023-07-31T04:02:52;16.50;99.90
22288;DHT22;11312;51.464;6.968;2023-07-31T04:05:18;16.60;99.90
22288;DHT22;11312;51.464;6.968;2023-07-31T04:07:44;16.60;99.90
22288;DHT22;11312;51.464;6.968;2023-07-31T04:10:10;16.60;99.90
22288;DHT22;11312;51.464;6.968;2023-07-31T04:12:35;16.50;99.90
22288;DHT22;11312;51.464;6.968;2023-07-31T04:15:01;16.60;99.90
22288;DHT22;11312;51.464;6.968;2023-07-31T04:17:26;16.70;99.90
22288;DHT22;11312;51.464;6.968;2023-07-31T04:19:52;16.60;99.90
22288;DHT22;11312;51.464;6.968;2023-07-31T04:22:18;16.60;99.90
22288;DHT22;11312;51.464;6.968;2023-07-31T04:24:43;16.60;99.90
22288;DHT22;11312;51.464;6.968;2023-07-31T04:27:09;16.50;99.90
22288;DHT22;11312;51.464;6.968;2023-07-31T04:29:34;16.70;99.90
22288;DHT22;11312;51.464;6.968;2023-07-31T04:32:00;16.60;99.90
22288;DHT22;11312;51.464;6.968;2023-07-31T04:34:26;16.60;99.90
22288;DHT22;11312;51.464;6.968;2023-07-31T04:36:51;16.60;99.90
22288;DHT22;11312;51.464;6.968;2023-07-31T04:39:17;16.60;99.90
22288;DHT22;11312;51.464;6.968;2023-07-31T04:41:42;16.60;99.90
22288;DHT22;11312;51.464;6.968;2023-07-31T04:44:08;16.60;99.90
22288;DHT22;11312;51.464;6.968;2023-07-31T04:46:33;16.60;99.90
22288;DHT22;11312;51.464;6.968;2023-07-31T04:48:59;16.60;99.90
22288;DHT22;11312;51.464;6.968;2023-07-31T04:51:25;16.60;99.90
22288;DHT22;11312;51.464;6.968;2023-07-31T04:53:51;16.70;99.90
22288;DHT22;11312;51.464;6.968;2023-07-31T04:56:16;16.60;99.90
22288;DHT22;11312;51.464;6.968;2023-07-31T04:58:42;16.50;99.90
22288;DHT22;11312;51.464;6.968;2023-07-31T05:01:07;16.60;99.90
22288;DHT22;11312;51.464;6.968;2023-07-31T05:03:33;16.60;99.90
22288;DHT22;11312;51.464;6.968;2023-07-31T05:05:59;16.70;99.90
22288;DHT22;11312;51.464;6.968;2023-07-31T05:08:24;16.80;99.90
22288;DHT22;11312;51.464;6.968;2023-07-31T05:10:50;16.80;99.90
22288;DHT22;11312;51.464;6.968;2023-07-31T05:13:15;16.80;99.90
22288;DHT22;11312;51.464;6.968;2023-07-31T05:15:41;16.70;99.90
22288;DHT22;11312;51.464;6.968;2023-07-31T05:18:07;16.70;99.90
22288;DHT22;11312;51.464;6.968;2023-07-31T05:20:32;16.80;99.90
22288;DHT22;11312;51.464;6.968;2023-07-31T05:22:58;16.80;99.90
22288;DHT22;11312;51.464;6.968;2023-07-31T05:25:24;16.80;99.90
22288;DHT22;11312;51.464;6.968;2023-07-31T05:27:49;16.80;99.90
22288;DHT22;11312;51.464;6.968;2023-07-31T05:30:15;16.80;99.90
22288;DHT22;11312;51.464;6.968;2023-07-31T05:32:40;16.80;99.90
22288;DHT22;11312;51.464;6.968;2023-07-31T05:35:06;16.80;99.90
22288;DHT22;11312;51.464;6.968;2023-07-31T05:37:32;16.90;99.90
22288;DHT22;11312;51.464;6.968;2023-07-31T05:39:58;16.90;99.90
22288;DHT22;11312;51.464;6.968;2023-07-31T05:42:23;16.90;99.90
22288;DHT22;11312;51.464;6.968;2023-07-31T05:44:49;17.00;99.90
22288;DHT22;11312;51.464;6.968;2023-07-31T05:47:15;16.90;99.90
22288;DHT22;11312;51.464;6.968;2023-07-31T05:49:41;16.90;99.90
22288;DHT22;11312;51.464;6.968;2023-07-31T05:52:07;16.80;99.90
22288;DHT22;11312;51.464;6.968;2023-07-31T05:54:32;16.90;99.90
22288;DHT22;11312;51.464;6.968;2023-07-31T05:56:59;16.80;99.90
22288;DHT22;11312;51.464;6.968;2023-07-31T05:59:24;16.90;99.90
22288;DHT22;11312;51.464;6.968;2023-07-31T06:01:50;16.80;99.90
22288;DHT22;11312;51.464;6.968;2023-07-31T06:04:15;16.90;99.90
22288;DHT22;11312;51.464;6.968;2023-07-31T06:06:41;16.90;99.90
22288;DHT22;11312;51.464;6.968;2023-07-31T06:09:07;16.90;99.90
22288;DHT22;11312;51.464;6.968;2023-07-31T06:11:32;17.10;99.90
22288;DHT22;11312;51.464;6.968;2023-07-31T06:13:58;17.10;99.90
22288;DHT22;11312;51.464;6.968;2023-07-31T06:16:25;17.20;99.90
22288;DHT22;11312;51.464;6.968;2023-07-31T06:18:50;17.10;99.90
22288;DHT22;11312;51.464;6.968;2023-07-31T06:21:16;17.10;99.90
22288;DHT22;11312;51.464;6.968;2023-07-31T06:23:42;17.10;99.90
22288;DHT22;11312;51.464;6.968;2023-07-31T06:26:08;17.20;99.90
22288;DHT22;11312;51.464;6.968;2023-07-31T06:28:34;17.10;99.90
22288;DHT22;11312;51.464;6.968;2023-07-31T06:31:00;16.80;99.90
22288;DHT22;11312;51.464;6.968;2023-07-31T06:33:27;17.00;99.90
22288;DHT22;11312;51.464;6.968;2023-07-31T06:35:52;17.00;99.90
22288;DHT22;11312;51.464;6.968;2023-07-31T06:38:26;17.00;99.90
22288;DHT22;11312;51.464;6.968;2023-07-31T06:40:52;16.90;99.90
22288;DHT22;11312;51.464;6.968;2023-07-31T06:43:18;17.00;99.90
22288;DHT22;11312;51.464;6.968;2023-07-31T06:45:44;16.90;99.90
22288;DHT22;11312;51.464;6.968;2023-07-31T06:48:11;16.80;99.90
22288;DHT22;11312;51.464;6.968;2023-07-31T06:50:36;16.90;99.90
22288;DHT22;11312;51.464;6.968;2023-07-31T06:53:02;16.80;99.90
22288;DHT22;11312;51.464;6.968;2023-07-31T06:55:28;16.90;99.90
22288;DHT22;11312;51.464;6.968;2023-07-31T06:57:55;16.90;99.90
22288;DHT22;11312;51.464;6.968;2023-07-31T07:00:22;16.90;99.90
22288;DHT22;11312;51.464;6.968;2023-07-31T07:02:48;16.90;99.90
22288;DHT22;11312;51.464;6.968;2023-07-31T07:05:14;17.00;99.90
22288;DHT22;11312;51.464;6.968;2023-07-31T07:07:41;16.90;99.90
22288;DHT22;11312;51.464;6.968;2023-07-31T07:10:07;16.90;99.90
22288;DHT22;11312;51.464;6.968;2023-07-31T07:12:33;16.80;99.90
22288;DHT22;11312;51.464;6.968;2023-07-31T07:14:59;16.80;99.90
22288;DHT22;11312;51.464;6.968;2023-07-31T07:17:29;16.70;99.90
22288;DHT22;11312;51.464;6.968;2023-07-31T07:19:59;17.10;99.90
22288;DHT22;11312;51.464;6.968;2023-07-31T07:22:25;17.50;99.90
22288;DHT22;11312;51.464;6.968;2023-07-31T07:24:51;17.80;99.90
22288;DHT22;11312;51.464;6.968;2023-07-31T07:27:17;17.50;99.90
22288;DHT22;11312;51.464;6.968;2023-07-31T07:29:42;17.20;99.90
22288;DHT22;11312;51.464;6.968;2023-07-31T07:32:08;17.30;99.90
22288;DHT22;11312;51.464;6.968;2023-07-31T07:34:34;17.00;99.90
22288;DHT22;11312;51.464;6.968;2023-07-31T07:36:59;17.10;99.90
22288;DHT22;11312;51.464;6.968;2023-07-31T07:39:25;17.00;99.90
22288;DHT22;11312;51.464;6.968;2023-07-31T07:41:50;16.90;99.90
22288;DHT22;11312;51.464;6.968;2023-07-31T07:44:16;17.00;99.90
22288;DHT22;11312;51.464;6.968;2023-07-31T07:46:43;17.00;99.90
22288;DHT22;11312;51.464;6.968;2023-07-31T07:49:08;17.00;99.90
22288;DHT22;11312;51.464;6.968;2023-07-31T07:51:34;17.10;99.90
22288;DHT22;11312;51.464;6.968;2023-07-31T07:54:00;17.10;99.90
22288;DHT22;11312;51.464;6.968;2023-07-31T07:56:27;17.00;99.90
22288;DHT22;11312;51.464;6.968;2023-07-31T07:58:53;16.70;99.90
22288;DHT22;11312;51.464;6.968;2023-07-31T08:01:19;16.70;99.90
22288;DHT22;11312;51.464;6.968;2023-07-31T08:03:44;16.90;99.90
22288;DHT22;11312;51.464;6.968;2023-07-31T08:06:10;16.70;99.90
22288;DHT22;11312;51.464;6.968;2023-07-31T08:08:36;16.60;99.90
22288;DHT22;11312;51.464;6.968;2023-07-31T08:11:02;16.70;99.90
22288;DHT22;11312;51.464;6.968;2023-07-31T08:13:28;16.60;99.90
22288;DHT22;11312;51.464;6.968;2023-07-31T08:15:54;16.70;99.90
22288;DHT22;11312;51.464;6.968;2023-07-31T08:18:20;16.60;99.90
22288;DHT22;11312;51.464;6.968;2023-07-31T08:20:46;16.60;99.90
22288;DHT22;11312;51.464;6.968;2023-07-31T08:23:12;16.70;99.90
22288;DHT22;11312;51.464;6.968;2023-07-31T08:25:38;16.60;99.90
22288;DHT22;11312;51.464;6.968;2023-07-31T08:28:04;16.60;99.90
22288;DHT22;11312;51.464;6.968;2023-07-31T08:30:30;16.60;99.90
22288;DHT22;11312;51.464;6.968;2023-07-31T08:32:57;16.60;99.90
22288;DHT22;11312;51.464;6.968;2023-07-31T08:35:24;16.60;99.90
22288;DHT22;11312;51.464;6.968;2023-07-31T08:37:49;16.70;99.90
22288;DHT22;11312;51.464;6.968;2023-07-31T08:40:15;16.70;99.90
22288;DHT22;11312;51.464;6.968;2023-07-31T08:42:45;16.60;99.90
22288;DHT22;11312;51.464;6.968;2023-07-31T08:45:16;16.80;99.90
22288;DHT22;11312;51.464;6.968;2023-07-31T08:47:48;16.80;99.90
22288;DHT22;11312;51.464;6.968;2023-07-31T08:50:15;16.80;99.90
22288;DHT22;11312;51.464;6.968;2023-07-31T08:52:40;16.80;99.90
22288;DHT22;11312;51.464;6.968;2023-07-31T08:55:07;16.70;99.90
22288;DHT22;11312;51.464;6.968;2023-07-31T08:57:35;16.70;99.90
22288;DHT22;11312;51.464;6.968;2023-07-31T09:00:01;16.70;99.90
22288;DHT22;11312;51.464;6.968;2023-07-31T09:02:33;16.70;99.90
22288;DHT22;11312;51.464;6.968;2023-07-31T09:05:01;16.60;99.90
22288;DHT22;11312;51.464;6.968;2023-07-31T09:07:29;16.70;99.90
22288;DHT22;11312;51.464;6.968;2023-07-31T09:09:54;16.70;99.90
22288;DHT22;11312;51.464;6.968;2023-07-31T09:12:21;16.70;99.90
22288;DHT22;11312;51.464;6.968;2023-07-31T09:14:47;16.60;99.90
22288;DHT22;11312;51.464;6.968;2023-07-31T09:17:12;16.60;99.90
22288;DHT22;11312;51.464;6.968;2023-07-31T09:19:38;16.60;99.90
22288;DHT22;11312;51.464;6.968;2023-07-31T09:22:07;16.60;99.90
22288;DHT22;11312;51.464;6.968;2023-07-31T09:24:33;16.60;99.90
22288;DHT22;11312;51.464;6.968;2023-07-31T09:27:00;16.60;99.90
22288;DHT22;11312;51.464;6.968;2023-07-31T09:29:27;16.70;99.90
22288;DHT22;11312;51.464;6.968;2023-07-31T09:31:54;17.10;99.90
22288;DHT22;11312;51.464;6.968;2023-07-31T09:34:20;16.70;99.90
22288;DHT22;11312;51.464;6.968;2023-07-31T09:36:53;16.90;99.90
22288;DHT22;11312;51.464;6.968;2023-07-31T09:39:19;16.70;99.90
22288;DHT22;11312;51.464;6.968;2023-07-31T09:41:54;16.90;99.90
22288;DHT22;11312;51.464;6.968;2023-07-31T09:44:20;17.00;99.90
22288;DHT22;11312;51.464;6.968;2023-07-31T09:46:47;16.90;99.90
22288;DHT22;11312;51.464;6.968;2023-07-31T09:49:14;17.00;99.90
22288;DHT22;11312;51.464;6.968;2023-07-31T09:51:41;17.20;99.90
22288;DHT22;11312;51.464;6.968;2023-07-31T09:54:16;17.10;99.90
22288;DHT22;11312;51.464;6.968;2023-07-31T09:56:47;16.90;99.90
22288;DHT22;11312;51.464;6.968;2023-07-31T09:59:15;17.00;99.90
22288;DHT22;11312;51.464;6.968;2023-07-31T10:01:42;17.00;99.90
22288;DHT22;11312;51.464;6.968;2023-07-31T10:04:09;17.00;99.90
22288;DHT22;11312;51.464;6.968;2023-07-31T10:06:36;17.00;99.90
22288;DHT22;11312;51.464;6.968;2023-07-31T10:09:06;17.10;99.90
22288;DHT22;11312;51.464;6.968;2023-07-31T10:11:39;17.00;99.90
22288;DHT22;11312;51.464;6.968;2023-07-31T10:14:07;17.00;99.90
22288;DHT22;11312;51.464;6.968;2023-07-31T10:16:34;17.10;99.90
22288;DHT22;11312;51.464;6.968;2023-07-31T10:19:00;17.00;99.90
22288;DHT22;11312;51.464;6.968;2023-07-31T10:21:27;17.10;99.90
22288;DHT22;11312;51.464;6.968;2023-07-31T10:23:53;17.00;99.90
22288;DHT22;11312;51.464;6.968;2023-07-31T10:26:20;17.00;99.90
22288;DHT22;11312;51.464;6.968;2023-07-31T10:28:48;17.00;99.90
22288;DHT22;11312;51.464;6.968;2023-07-31T10:31:15;16.90;99.90
22288;DHT22;11312;51.464;6.968;2023-07-31T10:33:42;17.10;99.90
22288;DHT22;11312;51.464;6.968;2023-07-31T10:36:20;17.10;99.90
22288;DHT22;11312;51.464;6.968;2023-07-31T10:38:48;17.20;99.90
22288;DHT22;11312;51.464;6.968;2023-07-31T10:41:14;17.20;99.90
22288;DHT22;11312;51.464;6.968;2023-07-31T10:43:40;17.30;99.90
22288;DHT22;11312;51.464;6.968;2023-07-31T10:46:11;17.30;99.90
22288;DHT22;11312;51.464;6.968;2023-07-31T10:48:39;17.40;99.90
22288;DHT22;11312;51.464;6.968;2023-07-31T10:51:08;17.50;99.90
22288;DHT22;11312;51.464;6.968;2023-07-31T10:53:35;17.60;99.90
22288;DHT22;11312;51.464;6.968;2023-07-31T10:56:08;17.60;99.90
22288;DHT22;11312;51.464;6.968;2023-07-31T10:58:34;17.70;99.90
22288;DHT22;11312;51.464;6.968;2023-07-31T11:01:02;17.70;99.90
22288;DHT22;11312;51.464;6.968;2023-07-31T11:03:47;17.70;99.90
22288;DHT22;11312;51.464;6.968;2023-07-31T11:06:15;17.80;99.90
22288;DHT22;11312;51.464;6.968;2023-07-31T11:08:49;17.80;99.90
22288;DHT22;11312;51.464;6.968;2023-07-31T11:11:17;17.70;99.90
22288;DHT22;11312;51.464;6.968;2023-07-31T11:13:44;17.80;99.90
22288;DHT22;11312;51.464;6.968;2023-07-31T11:16:11;17.70;99.90
22288;DHT22;11312;51.464;6.968;2023-07-31T11:18:41;17.80;99.90
22288;DHT22;11312;51.464;6.968;2023-07-31T11:21:11;17.90;99.90
22288;DHT22;11312;51.464;6.968;2023-07-31T11:23:37;18.00;99.90
22288;DHT22;11312;51.464;6.968;2023-07-31T11:26:05;18.00;99.90
22288;DHT22;11312;51.464;6.968;2023-07-31T11:28:32;18.10;99.90
22288;DHT22;11312;51.464;6.968;2023-07-31T11:30:59;18.20;99.90
22288;DHT22;11312;51.464;6.968;2023-07-31T11:33:25;18.00;99.90
22288;DHT22;11312;51.464;6.968;2023-07-31T11:35:51;18.00;99.90
22288;DHT22;11312;51.464;6.968;2023-07-31T11:38:24;18.00;99.90
22288;DHT22;11312;51.464;6.968;2023-07-31T11:40:51;18.30;99.90
22288;DHT22;11312;51.464;6.968;2023-07-31T11:43:18;18.40;99.90
22288;DHT22;11312;51.464;6.968;2023-07-31T11:45:52;18.30;99.90
22288;DHT22;11312;51.464;6.968;2023-07-31T11:48:22;18.20;99.90
22288;DHT22;11312;51.464;6.968;2023-07-31T11:50:52;18.40;99.90
22288;DHT22;11312;51.464;6.968;2023-07-31T11:53:52;18.30;99.90
22288;DHT22;11312;51.464;6.968;2023-07-31T11:56:20;18.30;99.90
22288;DHT22;11312;51.464;6.968;2023-07-31T11:58:47;18.30;99.90
22288;DHT22;11312;51.464;6.968;2023-07-31T12:01:19;18.30;99.90
22288;DHT22;11312;51.464;6.968;2023-07-31T12:03:46;18.20;99.90
22288;DHT22;11312;51.464;6.968;2023-07-31T12:06:12;18.20;99.90
22288;DHT22;11312;51.464;6.968;2023-07-31T12:08:38;17.90;99.90
22288;DHT22;11312;51.464;6.968;2023-07-31T12:11:07;18.00;99.90
22288;DHT22;11312;51.464;6.968;2023-07-31T12:13:35;17.90;99.90
22288;DHT22;11312;51.464;6.968;2023-07-31T12:16:02;17.90;99.90
22288;DHT22;11312;51.464;6.968;2023-07-31T12:18:33;17.80;99.90
22288;DHT22;11312;51.464;6.968;2023-07-31T12:21:01;17.70;99.90
22288;DHT22;11312;51.464;6.968;2023-07-31T12:23:28;17.90;99.90
22288;DHT22;11312;51.464;6.968;2023-07-31T12:26:14;17.70;99.90
22288;DHT22;11312;51.464;6.968;2023-07-31T12:28:44;17.70;99.90
22288;DHT22;11312;51.464;6.968;2023-07-31T12:31:14;17.80;99.90
22288;DHT22;11312;51.464;6.968;2023-07-31T12:33:41;17.60;99.90
22288;DHT22;11312;51.464;6.968;2023-07-31T12:36:10;17.70;99.90
22288;DHT22;11312;51.464;6.968;2023-07-31T12:38:36;17.80;99.90
22288;DHT22;11312;51.464;6.968;2023-07-31T12:41:02;17.90;99.90
22288;DHT22;11312;51.464;6.968;2023-07-31T12:43:27;17.90;99.90
22288;DHT22;11312;51.464;6.968;2023-07-31T12:45:54;18.30;99.90
22288;DHT22;11312;51.464;6.968;2023-07-31T12:48:20;18.40;99.90
22288;DHT22;11312;51.464;6.968;2023-07-31T12:50:45;18.50;99.90
22288;DHT22;11312;51.464;6.968;2023-07-31T12:53:11;18.40;99.90
22288;DHT22;11312;51.464;6.968;2023-07-31T12:55:37;18.40;99.90
22288;DHT22;11312;51.464;6.968;2023-07-31T12:58:03;18.30;99.90
22288;DHT22;11312;51.464;6.968;2023-07-31T13:00:29;18.30;99.90
22288;DHT22;11312;51.464;6.968;2023-07-31T13:02:55;18.30;99.90
22288;DHT22;11312;51.464;6.968;2023-07-31T13:05:20;18.10;99.90
22288;DHT22;11312;51.464;6.968;2023-07-31T13:07:47;18.20;99.90
22288;DHT22;11312;51.464;6.968;2023-07-31T13:10:13;18.20;99.90
22288;DHT22;11312;51.464;6.968;2023-07-31T13:12:38;18.20;99.90
22288;DHT22;11312;51.464;6.968;2023-07-31T13:15:05;18.20;99.90
22288;DHT22;11312;51.464;6.968;2023-07-31T13:17:31;18.20;99.90
22288;DHT22;11312;51.464;6.968;2023-07-31T13:19:57;18.40;99.90
22288;DHT22;11312;51.464;6.968;2023-07-31T13:22:22;18.60;99.90
22288;DHT22;11312;51.464;6.968;2023-07-31T13:24:48;18.70;99.90
22288;DHT22;11312;51.464;6.968;2023-07-31T13:27:14;18.60;99.90
22288;DHT22;11312;51.464;6.968;2023-07-31T13:29:45;18.60;99.90
22288;DHT22;11312;51.464;6.968;2023-07-31T13:32:11;18.40;99.90
22288;DHT22;11312;51.464;6.968;2023-07-31T13:34:36;18.50;99.90
22288;DHT22;11312;51.464;6.968;2023-07-31T13:37:02;18.40;99.90
22288;DHT22;11312;51.464;6.968;2023-07-31T13:39:28;18.50;99.90
22288;DHT22;11312;51.464;6.968;2023-07-31T13:41:54;18.50;99.90
22288;DHT22;11312;51.464;6.968;2023-07-31T13:44:20;18.30;99.90
22288;DHT22;11312;51.464;6.968;2023-07-31T13:46:45;18.30;99.90
22288;DHT22;11312;51.464;6.968;2023-07-31T13:49:11;18.40;99.90
22288;DHT22;11312;51.464;6.968;2023-07-31T13:51:37;18.50;99.90
22288;DHT22;11312;51.464;6.968;2023-07-31T13:54:04;18.40;99.90
22288;DHT22;11312;51.464;6.968;2023-07-31T13:56:31;18.40;99.90
22288;DHT22;11312;51.464;6.968;2023-07-31T13:58:57;18.50;99.90
22288;DHT22;11312;51.464;6.968;2023-07-31T14:01:23;18.60;99.90
22288;DHT22;11312;51.464;6.968;2023-07-31T14:03:49;18.60;99.90
22288;DHT22;11312;51.464;6.968;2023-07-31T14:06:15;18.70;99.90
22288;DHT22;11312;51.464;6.968;2023-07-31T14:08:40;19.00;99.90
22288;DHT22;11312;51.464;6.968;2023-07-31T14:11:06;19.20;99.90
22288;DHT22;11312;51.464;6.968;2023-07-31T14:13:32;19.40;99.90
22288;DHT22;11312;51.464;6.968;2023-07-31T14:15:57;19.60;99.90
22288;DHT22;11312;51.464;6.968;2023-07-31T14:18:23;19.60;99.90
22288;DHT22;11312;51.464;6.968;2023-07-31T14:20:48;19.60;99.90
22288;DHT22;11312;51.464;6.968;2023-07-31T14:23:14;19.60;99.90
22288;DHT22;11312;51.464;6.968;2023-07-31T14:25:41;19.60;99.90
22288;DHT22;11312;51.464;6.968;2023-07-31T14:28:06;19.50;99.90
22288;DHT22;11312;51.464;6.968;2023-07-31T14:30:32;19.30;99.90
22288;DHT22;11312;51.464;6.968;2023-07-31T14:32:58;19.30;99.90
22288;DHT22;11312;51.464;6.968;2023-07-31T14:35:25;19.20;99.90
22288;DHT22;11312;51.464;6.968;2023-07-31T14:37:51;19.10;99.90
22288;DHT22;11312;51.464;6.968;2023-07-31T14:40:17;19.10;99.90
22288;DHT22;11312;51.464;6.968;2023-07-31T14:42:42;19.00;99.90
22288;DHT22;11312;51.464;6.968;2023-07-31T14:45:08;18.90;99.90
22288;DHT22;11312;51.464;6.968;2023-07-31T14:47:36;18.90;99.90
22288;DHT22;11312;51.464;6.968;2023-07-31T14:50:02;18.90;99.90
22288;DHT22;11312;51.464;6.968;2023-07-31T14:52:28;18.70;99.90
22288;DHT22;11312;51.464;6.968;2023-07-31T14:54:54;18.70;99.90
22288;DHT22;11312;51.464;6.968;2023-07-31T14:57:19;18.60;99.90
22288;DHT22;11312;51.464;6.968;2023-07-31T14:59:47;18.60;99.90
22288;DHT22;11312;51.464;6.968;2023-07-31T15:02:14;18.60;99.90
22288;DHT22;11312;51.464;6.968;2023-07-31T15:04:40;18.50;99.90
22288;DHT22;11312;51.464;6.968;2023-07-31T15:07:06;18.50;99.90
22288;DHT22;11312;51.464;6.968;2023-07-31T15:09:31;18.50;99.90
22288;DHT22;11312;51.464;6.968;2023-07-31T15:11:57;18.40;99.90
22288;DHT22;11312;51.464;6.968;2023-07-31T15:14:24;18.40;99.90
22288;DHT22;11312;51.464;6.968;2023-07-31T15:16:50;18.50;99.90
22288;DHT22;11312;51.464;6.968;2023-07-31T15:19:16;18.50;99.90
22288;DHT22;11312;51.464;6.968;2023-07-31T15:21:41;18.40;99.90
22288;DHT22;11312;51.464;6.968;2023-07-31T15:24:07;18.40;99.90
22288;DHT22;11312;51.464;6.968;2023-07-31T15:26:33;18.40;99.90
22288;DHT22;11312;51.464;6.968;2023-07-31T15:29:05;18.50;99.90
22288;DHT22;11312;51.464;6.968;2023-07-31T15:31:35;18.40;99.90